• Join FlightAware (Why Join?)
  • Login
  • US Flag 
01:09AM EDT


 

Airport Tracker/Info


-or-


 

Live Flight TrackerFlight Track Log ✈ AUB1737 ✈ 06-Oct-2013 ✈ LATI / TIA - EDDM / MUC

Flight Track Log - Related Links

Times and Time Zones

All times are in EDT time to prevent confusion due to time zone crossing. See the AUB1737 flight status page for this flight to view local times or setup timezone preferences in your user account.

Time Position Orientation Groundspeed Altitude Reporting Facility
EDT Latitude Longitude Course Direction KTS MPH feet Rate Location/Type
06:06AM 41.9097 19.2315 324° Northwest  Level Estimated
06:07AM 41.9920 19.1493 323° Northwest  Level Estimated
06:08AM 42.0742 19.0669 323° Northwest  Level Estimated
06:09AM 42.1564 18.9842 323° Northwest  Level Estimated
06:10AM 42.2385 18.9013 323° Northwest  Level Estimated
06:11AM 42.3206 18.8182 323° Northwest  Level Estimated
06:12AM 42.4026 18.7349 323° Northwest  Level Estimated
06:13AM 42.4845 18.6514 323° Northwest  Level Estimated
06:14AM 42.5664 18.5676 323° Northwest  Level Estimated
06:15AM 42.6482 18.4836 323° Northwest  Level Estimated
06:16AM 42.7299 18.3995 323° Northwest  Level Estimated
06:17AM 42.8116 18.3150 323° Northwest  Level Estimated
06:18AM 42.8933 18.2304 323° Northwest  Level Estimated
06:19AM 42.9748 18.1455 323° Northwest  Level Estimated
06:20AM 43.0563 18.0604 323° Northwest  Level Estimated
06:21AM 43.1378 17.9751 323° Northwest  Level Estimated
06:22AM 43.2192 17.8896 323° Northwest  Level Estimated
06:23AM 43.3005 17.8038 322° Northwest  Level Estimated
06:24AM 43.3817 17.7178 322° Northwest  Level Estimated
06:25AM 43.4629 17.6316 322° Northwest  Level Estimated
06:26AM 43.5440 17.5451 322° Northwest  Level Estimated
06:27AM 43.6251 17.4585 322° Northwest  Level Estimated
06:28AM 43.7061 17.3715 322° Northwest  Level Estimated
06:29AM 43.7870 17.2844 322° Northwest  Level Estimated
06:30AM 43.8678 17.1970 322° Northwest  Level Estimated
06:31AM 43.9486 17.1093 322° Northwest  Level Estimated
06:32AM 44.0293 17.0214 322° Northwest  Level Estimated
06:33AM 44.1100 16.9333 322° Northwest  Level Estimated
06:34AM 44.1906 16.8450 322° Northwest  Level Estimated
06:35AM 44.2711 16.7564 322° Northwest  Level Estimated
06:36AM 44.3515 16.6675 322° Northwest  Level Estimated
06:37AM 44.4319 16.5784 322° Northwest  Level Estimated
06:38AM 44.5122 16.4891 322° Northwest  Level Estimated
06:39AM 44.5925 16.3995 322° Northwest  Level Estimated
06:40AM 44.6726 16.3097 321° Northwest  Level Estimated
06:41AM 44.7527 16.2196 321° Northwest  Level Estimated
06:42AM 44.8328 16.1293 321° Northwest  Level Estimated
06:43AM 44.9127 16.0387 321° Northwest  Level Estimated
06:44AM 44.9926 15.9479 321° Northwest  Level Estimated
06:45AM 45.0724 15.8568 321° Northwest  Level Estimated
06:46AM 45.1521 15.7655 321° Northwest  Level Estimated
06:47AM 45.2318 15.6739 321° Northwest  Level Estimated
06:48AM 45.3114 15.5821 321° Northwest  Level Estimated
06:49AM 45.3909 15.4900 321° Northwest  Level Estimated
06:50AM 45.4704 15.3976 321° Northwest  Level Estimated
06:51AM 45.5498 15.3050 321° Northwest  Level Estimated
06:52AM 45.6291 15.2121 321° Northwest  Level Estimated
06:53AM 45.7083 15.1189 321° Northwest  Level Estimated
06:54AM 45.7874 15.0255 321° Northwest  Level Estimated
06:55AM 45.8665 14.9318 320° Northwest  Level Estimated
06:56AM 45.9455 14.8379 320° Northwest  Level Estimated
06:57AM 46.0244 14.7437 320° Northwest  Level Estimated
06:58AM 46.1032 14.6492 320° Northwest  Level Estimated
06:59AM 46.1820 14.5544 320° Northwest  Level Estimated
07:00AM 46.2607 14.4594 320° Northwest  Level Estimated
07:01AM 46.3393 14.3641 320° Northwest  Level Estimated
07:02AM 46.4178 14.2685 320° Northwest  Level Estimated
07:03AM 46.4962 14.1727 320° Northwest  Level Estimated
07:04AM 46.5746 14.0766 320° Northwest  Level Estimated
07:05AM 46.6529 13.9802 320° Northwest  Level Estimated
07:06AM 46.7311 13.8835 320° Northwest  Level Estimated
07:07AM 46.8092 13.7865 320° Northwest  Level Estimated
07:08AM 46.8872 13.6893 320° Northwest  Level Estimated
07:09AM 46.9652 13.5917 320° Northwest  Level Estimated
07:10AM 47.0430 13.4939 319° Northwest  Level Estimated
07:11AM 47.1208 13.3958 319° Northwest  Level Estimated
07:12AM 47.1985 13.2974 319° Northwest  Level Estimated
07:13AM 47.2727 13.2031 319° Northwest  Level Estimated
07:14AM 47.3469 13.1085 319° Northwest  Level Estimated
07:15AM 47.4209 13.0136 319° Northwest  Level Estimated
07:16AM 47.4949 12.9185 319° Northwest  Level Estimated
07:17AM 47.5688 12.8231 319° Northwest  Level Estimated
07:18AM 47.6426 12.7275 319° Northwest  Level Estimated
07:19AM 47.7332 12.6094 319° Northwest  Level Estimated
07:20AM 47.8238 12.4910 319° Northwest  Level Estimated
07:21AM 47.9142 12.3722 319° Northwest  Level Estimated
07:22AM 48.0045 12.2529 319° Northwest  Level Estimated
07:23AM 48.0947 12.1332 318° Northwest  Level Estimated
07:24AM 48.1847 12.0132 318° Northwest  Level Estimated
07:25AM 48.2747 11.8926 318° Northwest  Level Estimated
07:26AM 48.3538 11.7861 318° Northwest  Level Estimated
07:27AM 48.3538 11.7861 318° Northwest  Level Estimated
07:28AM 48.3538 11.7861 318° Northwest  Level Estimated
07:29AM 48.3538 11.7861 318° Northwest  Level Estimated
07:30AM 48.3538 11.7861 318° Northwest  Level Estimated